Otisco, Indiana
Current Conditions -  °F | °C
As of 4:53 PM on Monday 24 Nov 2014 (Local Time) from KLOU Reporting Station
Overcast Overcast  
Wind Chill: 43°   Ceiling: 4900
Heat Index: 48°   Visibility: 10mi
Dew Point: 34°   Wind: 12mph
Humidity: 58%   Direction: 240°WSW
Pressure: 29.81"   Gusts: 20mph
Location:  38.54°N, 85.67°W
Report Text: KLOU 242153Z 24010G17KT 10SM OVC049 09/01 A2981 RMK AO2 SLP092 T00890011
Loading
Personal Weather Stations






























Interactive Weather Map New forecast layout! Learn more

10-Day Weather Forecast

Advertisements
Track Severe Weather on mobile